Los Angeles, CA

3:24 AM PST on November 23, 2014 (GMT -0800)
Los Angeles International | Change Station
CLOSE
Current Station
Airport
Location: Los Angeles,
Elevation: 105 ft
Nearby Weather Stations
Active Advisory: Fire Weather Watch Active Notice: Public Information Statement

Elev 105 ft 33.94 °N, 118.39 °W | Updated 31 minutes ago

Clear
Clear
60 °F
Feels Like 60 °F
N
9
Wind Variable Wind from NE

Today
High -- | Low -- °F
--% Chance of Precip.
Yesterday
High -- | Low -- °F
Precip. -- in
6:33 AM 4:46 PM
New Moon, 1% visible
Pressure 30.04 in
Visibility 10.0 miles
Clouds Few 1200 ft
Dew Point 53 °F
Humidity 78%
Rainfall 0.00 in
Snow Depth Not available.
UV 0 out of 12
Pollen 2.80 out of 12
Air Quality Not available.
Flu Activity Not available.
METAR KLAX 231053Z 05008KT 10SM FEW012 16/12 A3005 RMK AO2 SLP173 T01560117

More Conditions Fewer Conditions

Pressure 30.04 in
Visibility 10.0 miles
Clouds Few 1200 ft
Dew Point 53 °F
Humidity 78%
Rainfall 0.00 in
Snow Depth Not available.
UV 0 out of 12
Pollen 2.80 out of 12
Air Quality Not available.
Flu Activity Not available.
METAR KLAX 231053Z 05008KT 10SM FEW012 16/12 A3005 RMK AO2 SLP173 T01560117

More Conditions Fewer Conditions

10-Day Weather Forecast

Almanac

Astronomy

Nov. 23, 2014 Rise Set
Actual Time
Civil Twilight
Nautical Twilight
Astronomical Twilight
Moon
Length of Visible Light
Length of Day
Tomorrow will be .
, % of the Moon is Illuminated

Today's Extremes

State Highs State Lows

Community

WunderPhotos

Upload Photos

1,773,036 photos uploaded!

WunderBlogs® & News

Nearby

Air Quality

  Air Quality AQ Index Pollutant
Not available.

Snow Depth

Station Depth Elevation

Earthquake Activity

City Distance Mag. Time & Date
Minimum magnitude displayed is 2.5.

Coastal Water Temperatures

Place Temperature

Nearby Weather Stations